This is the latest recevied weather packets stored in our database for station/object Ad4UU. If no packets are shown the sender has not sent any weather packets the latest 10 day(s).
| Time | Temp. | Humidity | Pressure | Rain* | Wind** | Luminosity | Snow |
|---|---|---|---|---|---|---|---|
| 1777919448 | 27.78° C | 39% | 1017.4 hPa | 0 mm | - | - | - |
| 1777918829 | 27.78° C | 38% | 1017.7 hPa | 0 mm | - | - | - |
| 1777918553 | 28.33° C | 37% | 1017.8 hPa | 0 mm | - | - | - |
| 1777917329 | 27.78° C | 38% | 1017.9 hPa | 0 mm | - | - | - |
| 1777916429 | 27.78° C | 37% | 1018 hPa | 0 mm | - | - | - |
| 1777915230 | 27.22° C | 38% | 1018.2 hPa | 0 mm | - | - | - |
| 1777913731 | 26.11° C | 43% | 1018.6 hPa | 0 mm | - | - | - |
| 1777913153 | 26.11° C | 41% | 1018.7 hPa | 0 mm | - | - | - |
| 1777912832 | 26.11° C | 42% | 1018.8 hPa | 0 mm | - | - | - |
| 1777911631 | 26.11° C | 43% | 1018.9 hPa | 0 mm | - | - | - |
| 1777910130 | 25° C | 47% | 1019.3 hPa | 0 mm | - | - | - |
| 1777906845 | 24.44° C | 51% | 1019.4 hPa | 0 mm | - | - | - |
| 1777906236 | 24.44° C | 55% | 1019.4 hPa | 0 mm | - | - | - |
| 1777905634 | 23.89° C | 56% | 1019.4 hPa | 0 mm | - | - | - |
| 1777905332 | 23.89° C | 57% | 1019.5 hPa | 0 mm | - | - | - |
| 1777904732 | 23.89° C | 60% | 1019.5 hPa | 0 mm | - | - | - |
| 1777902935 | 22.78° C | 64% | 1019.4 hPa | 0 mm | - | - | - |
| 1777900561 | 21.11° C | 75% | 1019.2 hPa | 0 mm | - | - | - |
| 1777899650 | 20° C | 78% | 1019.1 hPa | 0 mm | - | - | - |
| 1777898762 | 19.44° C | 81% | 1019.5 hPa | 0 mm | - | - | - |
| 1777897850 | 18.33° C | 84% | 1019.2 hPa | 0 mm | - | - | - |
| 1777897233 | 17.78° C | 86% | 1019.2 hPa | 0 mm | - | - | - |
| 1777895141 | 15.56° C | 91% | 1019.1 hPa | 0 mm | - | - | - |
| 1777893048 | 13.33° C | 94% | 1018.5 hPa | 0 mm | - | - | - |
| 1777891542 | 13.33° C | 93% | 1018.3 hPa | 0 mm | - | - | - |
* Rain latest hour (hover to see other rain measurements)
** Current wind speed in m/s (hover to see current wind gust speed)